Terminal Aerodrome Forecast
Issued by NWS Binghamton, NY

Home | Current Version | Previous Version | Text Only | Print | Product List | Glossary On
Versions: 1 2 3 4 5 6 7 8 9 10 11 12 13 14 15 16 17 18 19 20
000
FTUS41 KBGM 050816 AAA
TAFBGM
TAF AMD
KBGM 050816Z 0508/0606 VRB03KT 1/2SM FG VV002
      TEMPO 0508/0512 2SM BR BKN005
     FM051200 27005KT P6SM SKC
      TEMPO 0512/0514 3SM BR SCT008
     FM051400 30010KT P6SM FEW035 BKN250
     FM060000 VRB03KT P6SM BKN250=

USA.gov is the U.S. government's official web portal to all federal, state and local government web resources and services.